UAL2579 KEWR-MMUN
Flight info
| Callsign | UAL2579 |
|---|---|
| Flight time | N/A |
| Altitude | 34000 |
| Route | BIGGY Q75 SLOJO/N0468F360 Q75 ENEME DCT EVANZ Q109 KNOST M219 NAVVL L465 SHARQ UM463 WALKY UB879 NOSAT NOSAT1B |
| Aircraft | B738/M-SDE2E3FGHIRWXY/LB1 |
Departure
| Time | 2026-04-30 21:19 |
|---|---|
| Airport | Newark Liberty International Airport (KEWR) |
Arrival
| Time | N/A |
|---|---|
| Airport | Cancún International Airport (MMUN) |
| Time | Latitude | Longitude | Altitude | Speed | Heading |
|---|---|---|---|---|---|
| 2026-04-30 20:43 | 40.68424 | -74.18234 | 21 ft | 0 kts | 214° |
| 2026-04-30 20:56 | 40.68429 | -74.18229 | 21 ft | 1 kts | 214° |
| 2026-04-30 20:57 | 40.68433 | -74.18225 | 22 ft | 1 kts | 214° |
| 2026-04-30 20:57 | 40.68437 | -74.18222 | 21 ft | 1 kts | 214° |
| 2026-04-30 20:57 | 40.68441 | -74.18218 | 21 ft | 1 kts | 215° |
| 2026-04-30 20:58 | 40.68449 | -74.18211 | 22 ft | 1 kts | 215° |
| 2026-04-30 20:58 | 40.68453 | -74.18207 | 23 ft | 1 kts | 216° |
| 2026-04-30 20:58 | 40.68457 | -74.18204 | 23 ft | 1 kts | 216° |
| 2026-04-30 20:58 | 40.68461 | -74.18200 | 22 ft | 1 kts | 216° |
| 2026-04-30 20:59 | 40.68469 | -74.18193 | 21 ft | 1 kts | 216° |
| 2026-04-30 20:59 | 40.68472 | -74.18189 | 21 ft | 1 kts | 216° |
| 2026-04-30 21:00 | 40.68480 | -74.18181 | 21 ft | 1 kts | 217° |
| 2026-04-30 21:00 | 40.68488 | -74.18174 | 21 ft | 1 kts | 217° |
| 2026-04-30 21:01 | 40.68495 | -74.18166 | 22 ft | 1 kts | 218° |
| 2026-04-30 21:01 | 40.68499 | -74.18162 | 25 ft | 1 kts | 218° |
| 2026-04-30 21:01 | 40.68507 | -74.18154 | 21 ft | 1 kts | 218° |
| 2026-04-30 21:02 | 40.68511 | -74.18150 | 22 ft | 1 kts | 218° |
| 2026-04-30 21:02 | 40.68514 | -74.18147 | 23 ft | 1 kts | 218° |
| 2026-04-30 21:02 | 40.68518 | -74.18143 | 21 ft | 1 kts | 219° |
| 2026-04-30 21:02 | 40.68521 | -74.18140 | 21 ft | 0 kts | 219° |
| 2026-04-30 21:06 | 40.68520 | -74.18141 | 21 ft | 1 kts | 219° |
| 2026-04-30 21:06 | 40.68513 | -74.18148 | 23 ft | 2 kts | 219° |
| 2026-04-30 21:06 | 40.68503 | -74.18159 | 21 ft | 2 kts | 214° |
| 2026-04-30 21:07 | 40.68488 | -74.18160 | 23 ft | 2 kts | 176° |
| 2026-04-30 21:07 | 40.68474 | -74.18152 | 21 ft | 2 kts | 150° |
| 2026-04-30 21:07 | 40.68470 | -74.18146 | 21 ft | 0 kts | 131° |
| 2026-04-30 21:11 | 40.68469 | -74.18144 | 21 ft | 1 kts | 131° |
| 2026-04-30 21:11 | 40.68451 | -74.18116 | 22 ft | 8 kts | 125° |
| 2026-04-30 21:11 | 40.68414 | -74.18021 | 21 ft | 14 kts | 115° |
| 2026-04-30 21:11 | 40.68366 | -74.17891 | 21 ft | 18 kts | 115° |
| 2026-04-30 21:12 | 40.68314 | -74.17745 | 21 ft | 9 kts | 115° |
| 2026-04-30 21:12 | 40.68295 | -74.17690 | 21 ft | 8 kts | 115° |
| 2026-04-30 21:12 | 40.68321 | -74.17610 | 21 ft | 13 kts | 33° |
| 2026-04-30 21:12 | 40.68415 | -74.17548 | 22 ft | 17 kts | 25° |
| 2026-04-30 21:13 | 40.68537 | -74.17474 | 22 ft | 21 kts | 24° |
| 2026-04-30 21:13 | 40.68682 | -74.17386 | 22 ft | 25 kts | 27° |
| 2026-04-30 21:13 | 40.68847 | -74.17281 | 21 ft | 28 kts | 25° |
| 2026-04-30 21:13 | 40.69032 | -74.17166 | 20 ft | 31 kts | 31° |
| 2026-04-30 21:14 | 40.69228 | -74.17031 | 21 ft | 33 kts | 25° |
| 2026-04-30 21:14 | 40.69438 | -74.16898 | 21 ft | 32 kts | 27° |
| 2026-04-30 21:14 | 40.69544 | -74.16832 | 21 ft | 17 kts | 24° |
| 2026-04-30 21:14 | 40.69660 | -74.16758 | 21 ft | 20 kts | 26° |
| 2026-04-30 21:15 | 40.69799 | -74.16670 | 20 ft | 24 kts | 27° |
| 2026-04-30 21:15 | 40.69933 | -74.16584 | 20 ft | 18 kts | 25° |
| 2026-04-30 21:15 | 40.70039 | -74.16517 | 20 ft | 12 kts | 25° |
| 2026-04-30 21:15 | 40.70064 | -74.16480 | 20 ft | 0 kts | 88° |
| 2026-04-30 21:17 | 40.70062 | -74.16419 | 19 ft | 9 kts | 92° |
| 2026-04-30 21:17 | 40.70034 | -74.16368 | 18 ft | 7 kts | 179° |
| 2026-04-30 21:18 | 40.69950 | -74.16412 | 18 ft | 19 kts | 204° |
| 2026-04-30 21:18 | 40.69695 | -74.16572 | 20 ft | 76 kts | 205° |
| 2026-04-30 21:18 | 40.69000 | -74.17021 | 21 ft | 145 kts | 207° |
| 2026-04-30 21:18 | 40.67931 | -74.17666 | 293 ft | 181 kts | 207° |
| 2026-04-30 21:19 | 40.66740 | -74.18218 | 1241 ft | 179 kts | 194° |
| 2026-04-30 21:19 | 40.65541 | -74.18636 | 2011 ft | 179 kts | 201° |
| 2026-04-30 21:19 | 40.64420 | -74.19337 | 2227 ft | 175 kts | 212° |
| 2026-04-30 21:19 | 40.63344 | -74.20133 | 2625 ft | 182 kts | 214° |
| 2026-04-30 21:20 | 40.62226 | -74.21016 | 2608 ft | 198 kts | 215° |
| 2026-04-30 21:20 | 40.61005 | -74.22136 | 2623 ft | 229 kts | 219° |
| 2026-04-30 21:20 | 40.59627 | -74.23357 | 2556 ft | 243 kts | 212° |
| 2026-04-30 21:20 | 40.58127 | -74.24450 | 2527 ft | 255 kts | 211° |
| 2026-04-30 21:21 | 40.56533 | -74.25598 | 2500 ft | 264 kts | 212° |
| 2026-04-30 21:21 | 40.54955 | -74.26815 | 2606 ft | 263 kts | 218° |
| 2026-04-30 21:21 | 40.53453 | -74.30897 | 4199 ft | 252 kts | 260° |
| 2026-04-30 21:22 | 40.53105 | -74.33171 | 5034 ft | 255 kts | 259° |
| 2026-04-30 21:22 | 40.51993 | -74.40087 | 7418 ft | 262 kts | 258° |
| 2026-04-30 21:23 | 40.51601 | -74.42430 | 8235 ft | 263 kts | 258° |
| 2026-04-30 21:23 | 40.51203 | -74.44788 | 9035 ft | 265 kts | 258° |
| 2026-04-30 21:23 | 40.50390 | -74.49539 | 10446 ft | 275 kts | 258° |
| 2026-04-30 21:24 | 40.49949 | -74.52094 | 10639 ft | 299 kts | 257° |